Time;durP1;ratioP1;P1;durP2;ratioP2;P2;SDS_P1;SDS_P2;PMS_P1;PMS_P2;Temp;Humidity;BMP_temperature;BMP_pressure;BME280_temperature;BME280_humidity;BME280_pressure;Samples;Min_cycle;Max_cycle;Signal;HPM_P1;HPM_P2
2021/01/30 05:02:20;;;;;;;10.65;6.30;;;;;;;1.51;86.00;98018.50;5162083;23;20038;-60
2021/01/30 05:04:49;;;;;;;12.87;6.90;;;;;;;1.58;86.93;98027.28;4933155;28;20055;-59
2021/01/30 05:07:14;;;;;;;12.07;7.45;;;;;;;1.71;86.03;98029.06;4934612;28;20176;-61
2021/01/30 05:09:49;;;;;;;13.57;7.70;;;;;;;1.52;86.05;98036.13;4935437;28;20268;-61
2021/01/30 05:12:26;;;;;;;15.07;8.63;;;;;;;1.50;86.37;98042.72;4950289;28;20050;-60
2021/01/30 05:15:03;;;;;;;14.50;9.82;;;;;;;1.57;86.95;98052.28;4950805;28;20515;-61
2021/01/30 05:17:38;;;;;;;15.73;8.95;;;;;;;1.54;87.64;98051.88;4934453;28;20121;-60
2021/01/30 05:20:09;;;;;;;14.48;8.88;;;;;;;1.35;86.10;98064.28;4934273;28;20652;-60
2021/01/30 05:22:39;;;;;;;16.42;10.05;;;;;;;1.12;85.47;98079.97;4934624;28;20514;-60
2021/01/30 05:25:27;;;;;;;21.60;11.63;;;;;;;1.08;86.90;98079.56;4934789;28;20403;-60
2021/01/30 05:28:17;;;;;;;20.30;12.65;;;;;;;0.96;85.57;98089.22;4949755;28;20039;-60
2021/01/30 05:31:08;;;;;;;21.92;13.07;;;;;;;0.69;86.54;98099.91;4950085;28;20038;-59
2021/01/30 05:33:57;;;;;;;23.67;14.05;;;;;;;0.60;85.60;98117.13;4932375;28;20043;-59
2021/01/30 05:36:31;;;;;;;29.83;16.02;;;;;;;0.63;85.40;98115.91;4932961;28;20113;-61
2021/01/30 05:39:39;;;;;;;23.55;13.43;;;;;;;0.49;85.22;98135.53;4930667;28;20035;-60
2021/01/30 05:42:17;;;;;;;30.23;17.85;;;;;;;0.65;86.76;98133.28;4911240;29;20035;-59
2021/01/30 05:44:58;;;;;;;31.42;16.20;;;;;;;0.59;85.37;98146.56;4929298;29;20058;-60
2021/01/30 05:47:31;;;;;;;33.70;17.23;;;;;;;0.63;85.21;98155.78;4930084;29;20057;-60
2021/01/30 05:50:22;;;;;;;33.55;19.42;;;;;;;0.39;84.49;98178.50;4911508;29;20105;-60
2021/01/30 05:52:49;;;;;;;37.97;21.00;;;;;;;0.46;86.02;98197.13;4929318;29;20069;-60
2021/01/30 05:55:31;;;;;;;43.70;21.55;;;;;;;0.26;84.85;98194.41;4929044;29;20106;-59
2021/01/30 05:57:59;;;;;;;39.38;21.05;;;;;;;0.05;83.89;98199.91;4927806;28;20134;-61
2021/01/30 06:00:26;;;;;;;40.85;21.38;;;;;;;-0.04;84.23;98212.56;4928370;28;20137;-60
2021/01/30 06:03:10;;;;;;;41.47;22.27;;;;;;;-0.17;85.03;98221.31;4932906;28;20043;-61
2021/01/30 06:05:47;;;;;;;42.05;21.38;;;;;;;-0.07;85.88;98219.09;4933786;28;20035;-59
2021/01/30 06:08:24;;;;;;;46.53;23.88;;;;;;;0.16;86.78;98240.00;4925196;29;20039;-60
2021/01/30 06:11:11;;;;;;;44.50;22.85;;;;;;;-0.05;84.66;98264.03;4932746;28;20077;-60
2021/01/30 06:13:58;;;;;;;35.15;19.52;;;;;;;-0.18;84.94;98275.44;4932381;28;20049;-59
2021/01/30 06:16:45;;;;;;;42.75;21.63;;;;;;;-0.28;85.07;98285.59;4929290;28;20496;-60
2021/01/30 06:19:21;;;;;;;36.78;18.90;;;;;;;-0.32;83.72;98291.50;4947324;28;20125;-60
2021/01/30 06:22:06;;;;;;;35.70;19.02;;;;;;;-0.38;84.62;98303.72;4930726;28;20392;-59
2021/01/30 06:24:32;;;;;;;34.78;17.45;;;;;;;-0.40;84.23;98305.75;4930539;28;20055;-59
2021/01/30 06:27:07;;;;;;;29.85;16.92;;;;;;;-0.52;83.91;98315.28;4931664;28;20053;-60
2021/01/30 06:29:36;;;;;;;28.27;14.63;;;;;;;-0.62;83.17;98328.06;4932890;28;20411;-59
2021/01/30 06:32:25;;;;;;;32.55;14.45;;;;;;;-0.58;83.99;98316.91;4931000;28;20109;-60
2021/01/30 06:34:55;;;;;;;29.30;15.50;;;;;;;-0.57;84.24;98342.38;4931431;28;20492;-59
2021/01/30 06:37:48;;;;;;;28.95;15.20;;;;;;;-0.73;82.86;98346.19;4931450;28;20301;-59
2021/01/30 06:40:20;;;;;;;25.55;12.82;;;;;;;-0.78;83.17;98361.84;4946385;28;20043;-61
2021/01/30 06:42:47;;;;;;;;;;;;;;;-0.79;84.10;98370.00;4947352;28;20551;-60
2021/01/30 06:45:25;;;;;;;30.00;14.27;;;;;;;-0.80;84.21;98377.13;4929193;28;20367;-60
2021/01/30 06:47:52;;;;;;;28.25;14.30;;;;;;;-0.81;84.27;98385.31;4929908;28;20527;-58
2021/01/30 06:50:40;;;;;;;27.25;14.85;;;;;;;-0.89;83.39;98388.06;4931006;28;20182;-60
2021/01/30 06:53:33;;;;;;;27.83;12.95;;;;;;;-0.92;84.18;98407.81;4945859;28;20055;-58
2021/01/30 06:56:14;;;;;;;25.08;12.77;;;;;;;-0.88;83.68;98406.44;4938692;28;20065;-59
2021/01/30 06:58:43;;;;;;;23.23;13.38;;;;;;;-0.69;84.85;98410.28;4947883;28;20042;-59
2021/01/30 07:01:22;;;;;;;25.58;13.35;;;;;;;-0.71;84.13;98420.28;4929576;28;20572;-60
2021/01/30 07:04:03;;;;;;;22.73;12.98;;;;;;;-0.59;83.76;98423.25;4927023;28;20515;-59
2021/01/30 07:06:38;;;;;;;25.42;11.93;;;;;;;-0.69;84.02;98430.72;4929603;28;20050;-59
2021/01/30 07:09:43;;;;;;;23.23;12.48;;;;;;;-0.67;83.76;98433.97;4925741;28;20123;-59
2021/01/30 07:12:49;;;;;;;21.98;11.57;;;;;;;-0.70;82.77;98442.34;4908747;28;20504;-59
2021/01/30 07:15:26;;;;;;;26.80;13.70;;;;;;;-0.51;84.83;98439.84;4927155;28;20043;-59
2021/01/30 07:18:00;;;;;;;23.70;12.95;;;;;;;-0.61;83.68;98446.50;4929634;28;20102;-59
2021/01/30 07:20:42;;;;;;;23.88;12.63;;;;;;;-0.62;83.58;98447.50;4927350;28;20124;-60
2021/01/30 07:23:19;;;;;;;23.67;12.20;;;;;;;-0.42;82.97;98451.13;4931133;28;20046;-60
2021/01/30 07:25:45;;;;;;;24.15;12.20;;;;;;;-0.49;82.59;98456.41;4944053;28;20532;-60
2021/01/30 07:28:27;;;;;;;25.08;13.00;;;;;;;-0.41;83.10;98458.09;4944585;28;20058;-59
2021/01/30 07:31:35;;;;;;;27.85;12.80;;;;;;;-0.38;82.61;98460.38;4931322;28;20431;-59
2021/01/30 07:34:20;;;;;;;24.00;12.48;;;;;;;-0.59;83.09;98457.75;4918077;28;21130;-59
2021/01/30 07:36:54;;;;;;;23.05;11.45;;;;;;;-0.54;83.04;98456.13;4947121;28;20041;-59
2021/01/30 07:39:45;;;;;;;21.70;11.75;;;;;;;-0.54;83.93;98477.38;4950352;28;20050;-60
2021/01/30 07:42:29;;;;;;;22.50;11.38;;;;;;;-0.63;82.11;98473.22;4936654;28;20067;-60
2021/01/30 07:45:03;;;;;;;22.75;10.13;;;;;;;-0.50;83.19;98481.31;4934564;28;20055;-59
2021/01/30 07:47:43;;;;;;;18.20;10.80;;;;;;;-0.65;82.75;98490.34;4929798;28;20054;-60
2021/01/30 07:50:22;;;;;;;19.48;9.50;;;;;;;-0.86;82.48;98501.75;4945457;28;20051;-59
2021/01/30 07:52:57;;;;;;;14.60;8.02;;;;;;;-0.87;83.11;98506.25;4943120;28;20066;-58
2021/01/30 07:55:23;;;;;;;17.58;9.00;;;;;;;-0.67;83.00;98516.22;4931338;28;20047;-59
2021/01/30 07:57:57;;;;;;;16.55;10.05;;;;;;;-0.80;83.16;98519.56;4927747;28;20668;-59
2021/01/30 08:00:32;;;;;;;19.25;10.50;;;;;;;-0.82;81.98;98535.69;4944949;28;20047;-60
2021/01/30 08:03:22;;;;;;;17.02;9.48;;;;;;;-0.82;83.00;98530.41;4931723;28;20050;-59
2021/01/30 08:06:06;;;;;;;17.80;9.75;;;;;;;-0.75;81.82;98538.41;4931563;28;20047;-59
2021/01/30 08:08:49;;;;;;;14.82;9.30;;;;;;;-0.62;82.04;98535.91;4928216;29;20388;-59
2021/01/30 08:11:42;;;;;;;19.10;10.30;;;;;;;-0.63;82.12;98536.91;4931459;28;20039;-59
2021/01/30 08:14:29;;;;;;;14.35;9.45;;;;;;;-0.50;82.13;98533.56;4931624;28;20058;-58
2021/01/30 08:17:16;;;;;;;19.73;10.13;;;;;;;-0.58;82.22;98539.00;4932087;28;20066;-59
2021/01/30 08:19:50;;;;;;;19.33;10.68;;;;;;;-0.40;80.58;98526.94;4930597;28;20133;-60
2021/01/30 08:22:27;;;;;;;18.45;9.25;;;;;;;-0.30;80.46;98537.22;4922142;29;20075;-60
2021/01/30 08:25:06;;;;;;;18.17;9.48;;;;;;;-0.34;81.26;98535.13;4912535;29;20054;-60
2021/01/30 08:27:38;;;;;;;17.98;9.30;;;;;;;-0.40;80.65;98542.84;4907582;29;20413;-60
2021/01/30 08:33:05;;;;;;;17.90;10.27;;;;;;;-0.58;80.33;98553.09;4952389;23;20564;-59
2021/01/30 08:35:31;;;;;;;17.95;10.25;;;;;;;-0.42;81.38;98552.84;4909331;28;20047;-60
2021/01/30 08:38:08;;;;;;;19.10;10.13;;;;;;;-0.55;79.74;98575.75;4915135;28;20532;-60
2021/01/30 08:40:48;;;;;;;18.38;9.95;;;;;;;-0.46;82.11;98575.44;4905547;29;20036;-60
2021/01/30 08:43:43;;;;;;;18.42;10.57;;;;;;;-0.53;82.10;98568.44;4911085;29;20047;-59
2021/01/30 08:46:34;;;;;;;17.98;10.32;;;;;;;-0.44;80.75;98580.56;4907891;29;20058;-60
2021/01/30 08:49:16;;;;;;;20.55;10.77;;;;;;;-0.50;80.96;98587.47;4910768;29;20048;-60
2021/01/30 08:51:44;;;;;;;15.82;10.00;;;;;;;-0.31;82.15;98588.69;4910335;29;20078;-60
2021/01/30 08:54:38;;;;;;;17.33;11.02;;;;;;;-0.02;82.28;98588.56;4911845;29;20047;-59
2021/01/30 08:57:25;;;;;;;18.17;10.63;;;;;;;-0.45;81.13;98598.34;4902700;29;20043;-59
2021/01/30 08:59:53;;;;;;;19.83;10.65;;;;;;;-0.53;79.81;98595.81;4895891;29;20450;-59
2021/01/30 09:02:28;;;;;;;22.02;11.68;;;;;;;-0.49;81.29;98604.22;4889718;29;20040;-59
2021/01/30 09:05:13;;;;;;;15.63;8.93;;;;;;;-0.62;80.80;98601.41;4892254;29;20052;-59
2021/01/30 09:07:48;;;;;;;17.98;9.90;;;;;;;-0.52;80.79;98615.22;4891944;29;20044;-59
2021/01/30 09:10:37;;;;;;;19.50;10.15;;;;;;;-0.64;80.61;98620.19;4891398;29;20127;-60
2021/01/30 09:13:20;;;;;;;19.10;10.57;;;;;;;-0.49;81.59;98614.84;4893896;29;20072;-59
2021/01/30 09:15:48;;;;;;;20.50;10.98;;;;;;;-0.24;80.74;98623.28;4892052;29;20048;-60
2021/01/30 09:18:20;;;;;;;17.35;10.43;;;;;;;-0.04;79.47;98619.78;4891776;29;20288;-60
2021/01/30 09:21:12;;;;;;;18.58;10.75;;;;;;;-0.32;78.89;98634.00;4889927;29;20040;-59
2021/01/30 09:23:47;;;;;;;;;;;;;;;-0.35;79.94;98637.06;4892674;29;20439;-60
2021/01/30 09:26:16;;;;;;;19.30;9.93;;;;;;;-0.41;81.47;98633.31;4893573;29;20209;-60
2021/01/30 09:28:44;;;;;;;21.02;12.05;;;;;;;-0.39;81.42;98632.09;4892066;29;20043;-60
2021/01/30 09:31:16;;;;;;;21.85;12.55;;;;;;;-0.31;81.45;98633.81;4893990;29;20051;-59
2021/01/30 09:34:01;;;;;;;18.10;9.82;;;;;;;-0.59;81.00;98636.38;4890215;29;20409;-59
2021/01/30 09:36:48;;;;;;;15.50;9.35;;;;;;;-0.54;81.26;98633.16;4889973;29;20040;-59
2021/01/30 09:39:29;;;;;;;17.50;10.57;;;;;;;-0.47;80.42;98642.03;4891295;29;20052;-59
2021/01/30 09:42:09;;;;;;;12.35;8.00;;;;;;;-0.34;79.23;98633.34;4917226;29;20408;-60
2021/01/30 09:44:35;;;;;;;19.67;10.25;;;;;;;-0.47;79.49;98639.38;4909555;29;20067;-59
2021/01/30 09:47:06;;;;;;;16.58;9.82;;;;;;;-0.24;79.69;98644.53;4910517;29;20054;-59
2021/01/30 09:49:43;;;;;;;20.98;11.35;;;;;;;-0.37;79.49;98655.81;4909438;29;20509;-59
2021/01/30 09:52:10;;;;;;;15.45;9.90;;;;;;;-0.19;79.58;98658.03;4906437;29;20052;-60
2021/01/30 09:54:36;;;;;;;15.20;9.15;;;;;;;-0.40;80.09;98651.69;4893090;29;20444;-59
2021/01/30 09:57:13;;;;;;;17.77;10.23;;;;;;;-0.24;79.81;98649.84;4900471;29;20474;-59
2021/01/30 09:59:38;;;;;;;21.25;11.23;;;;;;;-0.15;80.72;98660.16;4901698;29;20134;-59
2021/01/30 10:02:18;;;;;;;20.77;11.32;;;;;;;-0.04;79.96;98657.00;4896972;29;20127;-59
2021/01/30 10:04:44;;;;;;;20.42;11.35;;;;;;;-0.09;79.22;98656.72;4893012;28;20094;-60
2021/01/30 10:07:14;;;;;;;18.75;11.80;;;;;;;-0.05;78.89;98647.38;4899067;29;20087;-60
2021/01/30 10:09:43;;;;;;;18.27;11.32;;;;;;;0.12;79.07;98658.56;4910476;29;20565;-59
2021/01/30 10:12:09;;;;;;;19.85;11.40;;;;;;;0.42;79.44;98661.06;4907833;29;20111;-60
2021/01/30 10:14:38;;;;;;;18.25;10.80;;;;;;;0.57;78.73;98659.16;4907766;29;20044;-60
2021/01/30 10:17:15;;;;;;;18.13;10.63;;;;;;;0.62;79.58;98648.75;4909634;29;20044;-60
2021/01/30 10:19:42;;;;;;;17.33;10.10;;;;;;;0.53;77.88;98652.56;4910357;29;20046;-59
2021/01/30 10:22:20;;;;;;;18.50;10.85;;;;;;;0.48;78.21;98653.13;4911320;29;20115;-59
2021/01/30 10:24:47;;;;;;;18.10;10.90;;;;;;;0.47;78.54;98648.81;4910639;29;20047;-59
2021/01/30 10:27:23;;;;;;;17.92;11.20;;;;;;;0.53;79.07;98655.22;4902965;29;20047;-60
2021/01/30 10:29:55;;;;;;;17.92;10.55;;;;;;;0.43;79.15;98646.78;4915408;29;20039;-60
2021/01/30 10:32:31;;;;;;;18.02;11.38;;;;;;;0.30;78.92;98650.97;4897040;29;20039;-59
2021/01/30 10:35:01;;;;;;;19.25;10.68;;;;;;;0.32;79.37;98654.25;4897440;29;20056;-59
2021/01/30 10:37:30;;;;;;;17.88;11.65;;;;;;;0.44;80.44;98656.41;4893333;29;20112;-59
2021/01/30 10:40:03;;;;;;;19.08;11.15;;;;;;;0.36;78.40;98658.16;4894824;29;20063;-59
2021/01/30 10:42:33;;;;;;;18.10;12.10;;;;;;;0.33;79.24;98657.75;4913043;29;20048;-59
2021/01/30 10:45:03;;;;;;;20.73;11.73;;;;;;;0.16;78.32;98659.81;4894108;29;20044;-60
2021/01/30 10:47:29;;;;;;;18.77;11.07;;;;;;;0.41;80.25;98670.06;4892869;29;20138;-59
2021/01/30 10:50:12;;;;;;;18.48;12.05;;;;;;;0.27;79.40;98661.16;4892056;29;20048;-60
2021/01/30 10:52:38;;;;;;;18.48;11.10;;;;;;;0.24;79.02;98667.66;4915580;29;20040;-60
2021/01/30 10:55:23;;;;;;;19.40;11.48;;;;;;;0.43;79.80;98673.34;4896906;29;20044;-60
2021/01/30 10:57:49;;;;;;;16.15;10.23;;;;;;;0.66;79.65;98677.44;4893820;29;20548;-60
2021/01/30 11:00:28;;;;;;;18.80;11.30;;;;;;;0.50;79.56;98682.19;4925264;29;20134;-60
2021/01/30 11:02:53;;;;;;;21.15;11.73;;;;;;;0.31;78.54;98673.88;4925763;28;20044;-60
2021/01/30 11:05:19;;;;;;;17.90;10.23;;;;;;;0.30;79.16;98682.03;4901091;29;20048;-59
2021/01/30 11:07:55;;;;;;;20.98;12.57;;;;;;;0.30;79.28;98690.84;4890009;29;20044;-60
2021/01/30 11:10:29;;;;;;;17.02;10.63;;;;;;;0.14;79.00;98692.91;4924539;29;20703;-59
2021/01/30 11:13:08;;;;;;;15.07;9.85;;;;;;;0.00;79.97;98686.66;4908980;29;20051;-60
2021/01/30 11:15:35;;;;;;;18.73;11.43;;;;;;;0.04;80.85;98693.22;4916619;29;20068;-60
2021/01/30 11:18:28;;;;;;;19.30;11.77;;;;;;;-0.10;80.56;98700.22;4891658;29;20051;-60
2021/01/30 11:20:56;;;;;;;20.13;11.30;;;;;;;0.05;81.55;98688.75;4899237;28;20540;-60
2021/01/30 11:23:48;;;;;;;21.98;11.73;;;;;;;-0.07;80.22;98691.06;4909260;28;20047;-59
2021/01/30 11:26:36;;;;;;;17.55;11.77;;;;;;;-0.10;80.81;98697.56;4906088;29;20055;-59
2021/01/30 11:29:06;;;;;;;19.77;11.13;;;;;;;0.08;80.51;98694.50;4887689;29;20438;-59
2021/01/30 11:31:37;;;;;;;21.42;11.15;;;;;;;-0.12;80.71;98685.50;4891167;29;20040;-59
2021/01/30 11:34:03;;;;;;;18.40;11.43;;;;;;;0.22;80.91;98687.50;4892459;29;20509;-60
2021/01/30 11:36:28;;;;;;;17.45;11.52;;;;;;;0.53;80.22;98687.97;4909677;29;20051;-60
2021/01/30 11:38:57;;;;;;;21.70;12.05;;;;;;;0.23;78.67;98686.47;4910071;29;20048;-60
2021/01/30 11:41:23;;;;;;;16.48;10.95;;;;;;;0.22;78.92;98683.00;4924227;29;20054;-60
2021/01/30 11:43:49;;;;;;;17.77;11.52;;;;;;;0.30;80.45;98696.16;4908611;29;20048;-60
2021/01/30 11:46:15;;;;;;;21.67;11.93;;;;;;;-0.04;80.50;98674.75;4909793;29;20111;-61
2021/01/30 11:48:40;;;;;;;20.10;12.27;;;;;;;0.14;80.15;98693.72;4907239;29;20109;-60
2021/01/30 11:51:11;;;;;;;17.75;10.93;;;;;;;0.03;80.26;98693.41;4909786;29;20437;-59
2021/01/30 11:53:36;;;;;;;22.10;11.60;;;;;;;0.22;82.40;98695.47;4907602;29;20434;-59
2021/01/30 11:56:02;;;;;;;20.77;12.57;;;;;;;0.47;80.71;98695.88;4893237;29;20240;-60
2021/01/30 11:58:27;;;;;;;22.17;13.40;;;;;;;0.60;79.86;98698.63;4898793;28;20142;-60
2021/01/30 12:00:53;;;;;;;20.13;11.68;;;;;;;0.60;79.59;98699.47;4896886;29;20044;-59
2021/01/30 12:03:23;;;;;;;22.13;13.40;;;;;;;0.66;79.55;98700.53;4890318;29;20403;-60
2021/01/30 12:05:49;;;;;;;19.38;11.70;;;;;;;0.50;78.98;98708.78;4893686;29;20051;-60
2021/01/30 12:08:15;;;;;;;20.48;11.98;;;;;;;0.59;78.96;98697.00;4903273;28;20039;-60
2021/01/30 12:10:41;;;;;;;21.67;11.93;;;;;;;0.52;78.29;98698.78;4905562;29;20048;-60
2021/01/30 12:13:06;;;;;;;23.48;13.38;;;;;;;0.50;78.73;98701.63;4909328;29;20299;-59
2021/01/30 12:15:33;;;;;;;22.45;13.88;;;;;;;0.65;78.79;98706.88;4901966;29;20048;-60
2021/01/30 12:18:00;;;;;;;25.10;13.25;;;;;;;0.48;79.59;98706.31;4903513;28;20050;-60
2021/01/30 12:20:28;;;;;;;22.65;11.77;;;;;;;0.40;80.08;98716.25;4907953;29;20043;-59
2021/01/30 12:22:57;;;;;;;19.92;12.20;;;;;;;0.44;79.91;98712.22;4894149;29;20075;-59
2021/01/30 12:25:22;;;;;;;21.02;12.40;;;;;;;0.30;79.07;98705.97;4895271;29;20147;-60
2021/01/30 12:27:53;;;;;;;23.67;13.30;;;;;;;0.47;80.16;98707.31;4898278;29;20048;-59
2021/01/30 12:30:25;;;;;;;19.73;12.07;;;;;;;0.47;78.71;98709.97;4892895;29;20048;-60
2021/01/30 12:32:51;;;;;;;26.88;12.82;;;;;;;0.70;79.39;98712.41;4899145;28;20111;-59
2021/01/30 12:35:18;;;;;;;23.38;13.05;;;;;;;0.69;81.05;98716.13;4902676;28;20047;-60
2021/01/30 12:37:44;;;;;;;24.30;13.48;;;;;;;0.71;80.86;98714.06;4900748;29;20039;-59
2021/01/30 12:40:11;;;;;;;23.88;13.68;;;;;;;0.69;81.45;98726.75;4905941;29;20059;-60
2021/01/30 12:42:37;;;;;;;24.08;13.45;;;;;;;0.79;79.87;98721.94;4910291;29;20066;-59
2021/01/30 12:45:06;;;;;;;22.75;12.63;;;;;;;0.80;79.71;98720.09;4910009;28;20043;-60
2021/01/30 12:47:32;;;;;;;26.00;12.77;;;;;;;0.81;78.33;98716.41;4912781;28;20071;-59
2021/01/30 12:49:58;;;;;;;20.15;12.35;;;;;;;0.76;78.13;98709.00;4912354;28;20472;-59
2021/01/30 12:52:24;;;;;;;19.85;12.07;;;;;;;0.87;78.42;98712.97;4911244;29;20446;-60
2021/01/30 12:54:51;;;;;;;21.73;12.60;;;;;;;0.85;78.70;98712.34;4912627;29;20107;-60
2021/01/30 12:57:17;;;;;;;24.63;13.10;;;;;;;0.82;79.15;98715.38;4907316;29;20044;-60
2021/01/30 12:59:43;;;;;;;25.33;12.77;;;;;;;0.80;79.62;98712.13;4912036;29;20561;-61
2021/01/30 13:02:09;;;;;;;24.80;12.50;;;;;;;0.69;78.61;98716.13;4912994;29;20104;-59
2021/01/30 13:04:34;;;;;;;21.45;12.23;;;;;;;0.79;79.57;98716.59;4911886;29;20043;-60
2021/01/30 13:07:00;;;;;;;23.73;12.70;;;;;;;0.77;79.98;98717.81;4910880;29;20035;-60
2021/01/30 13:09:26;;;;;;;20.10;11.95;;;;;;;0.72;79.93;98719.19;4911007;29;20043;-60
2021/01/30 13:11:52;;;;;;;23.70;13.00;;;;;;;0.83;80.40;98717.84;4911243;29;20031;-60
2021/01/30 13:14:18;;;;;;;21.27;12.45;;;;;;;0.83;81.62;98723.16;4926283;28;20501;-59
2021/01/30 13:16:44;;;;;;;20.83;11.95;;;;;;;0.85;80.29;98726.47;4897241;29;20433;-60
2021/01/30 13:19:11;;;;;;;22.50;13.43;;;;;;;0.88;79.27;98726.09;4902730;29;20055;-59
2021/01/30 13:21:37;;;;;;;22.25;12.32;;;;;;;0.83;79.60;98725.00;4901665;29;20098;-60
2021/01/30 13:24:03;;;;;;;20.73;12.00;;;;;;;0.80;80.49;98717.44;4907802;28;20306;-60
2021/01/30 13:26:29;;;;;;;24.35;12.45;;;;;;;0.79;79.46;98721.09;4901225;29;20548;-59
2021/01/30 13:28:55;;;;;;;24.83;12.10;;;;;;;0.84;80.59;98716.84;4905423;29;20046;-59
2021/01/30 13:31:20;;;;;;;22.33;13.77;;;;;;;0.86;79.16;98722.78;4902157;28;20040;-60
2021/01/30 13:33:46;;;;;;;22.67;12.73;;;;;;;0.96;79.98;98720.59;4906589;29;20497;-60
2021/01/30 13:36:11;;;;;;;23.88;13.43;;;;;;;1.03;79.16;98724.16;4903938;28;20034;-60
2021/01/30 13:38:38;;;;;;;18.05;10.90;;;;;;;1.07;79.27;98727.22;4911116;29;20074;-59
2021/01/30 13:41:04;;;;;;;21.30;11.98;;;;;;;1.13;79.01;98729.13;4904080;29;20047;-59
2021/01/30 13:43:29;;;;;;;20.42;11.25;;;;;;;1.22;78.34;98729.78;4908461;29;20390;-59
2021/01/30 13:45:56;;;;;;;20.65;12.05;;;;;;;1.25;77.75;98732.88;4907682;29;20055;-60
2021/01/30 13:48:21;;;;;;;21.98;10.65;;;;;;;1.18;76.56;98734.66;4908315;29;20532;-59
2021/01/30 13:50:47;;;;;;;23.17;13.30;;;;;;;1.20;78.29;98734.47;4909210;29;20047;-60
2021/01/30 13:53:13;;;;;;;19.42;11.15;;;;;;;1.17;77.75;98733.03;4911234;29;20417;-60
2021/01/30 13:55:38;;;;;;;20.02;10.65;;;;;;;1.23;76.97;98729.59;4911023;29;20040;-60
2021/01/30 13:58:04;;;;;;;19.45;11.55;;;;;;;1.32;77.46;98730.25;4910924;29;20051;-60
2021/01/30 14:00:31;;;;;;;21.42;11.15;;;;;;;1.18;77.05;98728.53;4909651;29;20062;-59
2021/01/30 14:02:56;;;;;;;24.60;11.88;;;;;;;1.25;78.55;98727.56;4911501;29;20446;-60
2021/01/30 14:05:25;;;;;;;16.35;10.13;;;;;;;1.17;77.66;98725.03;4911379;29;20526;-60
2021/01/30 14:07:59;;;;;;;18.90;10.75;;;;;;;1.07;77.31;98728.06;4911276;29;20040;-59
2021/01/30 14:10:25;;;;;;;18.10;9.95;;;;;;;0.99;77.56;98727.38;4905297;29;20043;-59
2021/01/30 14:12:50;;;;;;;18.13;10.45;;;;;;;0.83;76.62;98730.31;4889915;29;20634;-59
2021/01/30 14:15:16;;;;;;;18.58;10.00;;;;;;;0.78;76.33;98728.25;4895863;29;20060;-59
2021/01/30 14:17:42;;;;;;;18.27;10.20;;;;;;;0.83;77.77;98722.34;4906062;29;20055;-61
2021/01/30 14:20:09;;;;;;;16.08;9.35;;;;;;;0.89;77.39;98718.94;4906059;29;20063;-59
2021/01/30 14:22:35;;;;;;;16.88;9.00;;;;;;;0.90;78.09;98717.91;4905732;29;20087;-59
2021/01/30 14:25:03;;;;;;;16.77;9.73;;;;;;;0.87;77.63;98731.59;4905339;29;20098;-59
2021/01/30 14:27:28;;;;;;;17.75;9.75;;;;;;;0.87;77.38;98720.94;4904946;29;20072;-60
2021/01/30 14:29:54;;;;;;;19.17;9.70;;;;;;;0.92;79.16;98732.69;4921351;29;20056;-59
2021/01/30 14:32:20;;;;;;;16.23;9.43;;;;;;;0.85;79.63;98729.13;4906886;29;20048;-59
2021/01/30 14:34:47;;;;;;;16.10;9.68;;;;;;;0.88;78.82;98726.09;4923165;29;20040;-58
2021/01/30 14:37:12;;;;;;;16.45;10.02;;;;;;;0.91;79.87;98728.38;4907240;29;20501;-59
2021/01/30 14:39:38;;;;;;;16.13;9.57;;;;;;;0.90;78.45;98732.03;4907945;29;20048;-59
2021/01/30 14:42:04;;;;;;;14.60;8.45;;;;;;;0.89;77.84;98737.53;4908658;29;20131;-59
2021/01/30 14:44:29;;;;;;;17.05;9.60;;;;;;;0.95;77.75;98742.91;4909144;29;20064;-60
2021/01/30 14:46:55;;;;;;;17.27;9.32;;;;;;;0.82;78.11;98741.97;4908723;29;20039;-59
2021/01/30 14:49:20;;;;;;;15.75;9.93;;;;;;;0.85;77.10;98738.94;4908770;29;20059;-60
2021/01/30 14:51:46;;;;;;;16.50;9.95;;;;;;;0.88;79.25;98742.03;4905885;29;20060;-59
2021/01/30 14:54:12;;;;;;;16.50;9.68;;;;;;;0.93;79.85;98749.44;4905812;29;20109;-63
2021/01/30 14:56:41;;;;;;;16.35;9.73;;;;;;;0.92;79.13;98755.78;4915118;29;20063;-60
2021/01/30 14:59:06;;;;;;;18.80;9.55;;;;;;;0.92;78.89;98756.63;4900073;29;20451;-59
2021/01/30 15:01:33;;;;;;;17.15;9.38;;;;;;;0.83;79.45;98762.25;4894558;29;20048;-59
2021/01/30 15:03:59;;;;;;;17.25;9.60;;;;;;;0.91;79.14;98752.31;4895677;29;20040;-59
2021/01/30 15:06:25;;;;;;;18.17;9.60;;;;;;;1.02;78.47;98753.63;4890286;29;20097;-60
2021/01/30 15:08:51;;;;;;;17.83;9.93;;;;;;;0.91;78.82;98765.63;4903868;28;20860;-59
2021/01/30 15:11:17;;;;;;;18.70;9.23;;;;;;;1.07;78.56;98761.81;4902857;29;20044;-59
2021/01/30 15:13:42;;;;;;;17.10;9.02;;;;;;;1.07;77.85;98761.81;4903932;28;20438;-59
2021/01/30 15:16:12;;;;;;;16.67;9.32;;;;;;;1.07;78.05;98757.31;4899639;29;20181;-59
2021/01/30 15:18:38;;;;;;;17.88;9.73;;;;;;;0.97;78.06;98764.81;4895387;29;20047;-59
2021/01/30 15:21:05;;;;;;;19.30;10.73;;;;;;;0.88;78.70;98781.94;4903642;28;20050;-59
2021/01/30 15:23:31;;;;;;;20.60;10.73;;;;;;;0.90;79.85;98771.94;4905080;28;20044;-60
2021/01/30 15:25:57;;;;;;;21.23;11.27;;;;;;;0.91;79.21;98764.78;4904929;28;20047;-59
2021/01/30 15:28:23;;;;;;;19.40;10.70;;;;;;;0.87;79.80;98768.84;4897200;29;20591;-59
2021/01/30 15:30:51;;;;;;;18.60;10.55;;;;;;;0.84;79.61;98766.56;4912528;28;21307;-59
2021/01/30 15:33:17;;;;;;;19.73;10.73;;;;;;;0.82;81.27;98764.09;4910887;28;20048;-61
2021/01/30 15:35:43;;;;;;;22.27;12.23;;;;;;;0.73;80.35;98779.38;4898431;28;20051;-59
2021/01/30 15:38:08;;;;;;;19.85;10.77;;;;;;;0.79;80.48;98783.09;4892138;29;20054;-60
2021/01/30 15:40:34;;;;;;;22.67;11.15;;;;;;;0.72;81.41;98791.00;4896896;28;20047;-60
2021/01/30 15:43:02;;;;;;;21.70;11.98;;;;;;;0.73;81.41;98784.69;4912727;29;20036;-60
2021/01/30 15:45:28;;;;;;;21.85;12.60;;;;;;;0.68;81.39;98802.25;4920840;29;20112;-60
2021/01/30 15:47:55;;;;;;;21.63;12.68;;;;;;;0.65;80.84;98798.13;4890892;29;20131;-60
2021/01/30 15:50:21;;;;;;;23.15;12.25;;;;;;;0.61;81.71;98796.03;4919128;29;20175;-59
2021/01/30 15:52:47;;;;;;;21.92;13.00;;;;;;;0.64;81.81;98801.78;4921214;29;20048;-61
2021/01/30 15:55:20;;;;;;;22.05;12.02;;;;;;;0.68;81.63;98811.03;4925649;29;20047;-62
2021/01/30 15:57:46;;;;;;;22.63;13.10;;;;;;;0.70;80.91;98810.84;4911600;29;20044;-59
2021/01/30 16:00:15;;;;;;;21.15;12.90;;;;;;;0.70;81.19;98806.34;4914026;29;20044;-59
2021/01/30 16:02:41;;;;;;;21.80;12.80;;;;;;;0.84;81.18;98812.59;4929749;29;20504;-60
2021/01/30 16:05:07;;;;;;;22.65;13.27;;;;;;;0.79;81.12;98811.53;4911482;29;20126;-60
2021/01/30 16:07:33;;;;;;;27.30;13.35;;;;;;;0.76;80.24;98814.59;4913761;28;20043;-60
2021/01/30 16:09:58;;;;;;;20.92;12.57;;;;;;;0.76;79.03;98810.09;4911430;29;20050;-60
2021/01/30 16:12:24;;;;;;;22.73;12.68;;;;;;;0.77;78.97;98808.25;4906197;29;20040;-59
2021/01/30 16:14:49;;;;;;;23.35;13.93;;;;;;;0.80;78.80;98819.34;4905134;28;20047;-60
2021/01/30 16:17:15;;;;;;;27.02;14.80;;;;;;;0.88;78.30;98803.25;4902988;28;20048;-60
2021/01/30 16:19:41;;;;;;;25.73;14.23;;;;;;;0.88;77.84;98813.06;4896881;29;20047;-60
2021/01/30 16:22:07;;;;;;;25.70;13.77;;;;;;;0.91;78.41;98816.16;4894190;29;20048;-59
2021/01/30 16:24:32;;;;;;;24.80;13.75;;;;;;;0.84;78.67;98820.59;4894191;29;20171;-60
2021/01/30 16:27:03;;;;;;;23.33;13.05;;;;;;;0.86;79.06;98818.56;4894579;29;20490;-61
2021/01/30 16:29:30;;;;;;;23.48;13.85;;;;;;;0.77;79.05;98819.72;4902965;28;20130;-60
2021/01/30 16:31:57;;;;;;;31.90;18.75;;;;;;;0.79;79.07;98828.34;4911661;28;20659;-60
2021/01/30 16:34:23;;;;;;;25.70;14.13;;;;;;;0.78;79.68;98828.53;4911338;28;20043;-59
2021/01/30 16:36:49;;;;;;;25.83;14.80;;;;;;;0.75;78.27;98831.56;4911250;28;20113;-60
2021/01/30 16:39:15;;;;;;;23.52;14.57;;;;;;;0.70;77.90;98830.28;4911797;28;20068;-60
2021/01/30 16:41:41;;;;;;;24.67;13.38;;;;;;;0.75;77.64;98823.56;4906635;29;20067;-61
2021/01/30 16:44:07;;;;;;;24.75;14.65;;;;;;;0.81;77.93;98830.81;4901052;29;20040;-60
2021/01/30 16:46:32;;;;;;;26.40;13.73;;;;;;;0.73;77.43;98824.59;4894368;29;20044;-60
2021/01/30 16:48:58;;;;;;;26.77;14.40;;;;;;;0.81;78.41;98830.81;4919849;29;20398;-60
2021/01/30 16:51:24;;;;;;;25.00;15.07;;;;;;;0.75;78.58;98834.22;4923379;29;20055;-61